Time;durP1;ratioP1;P1;durP2;ratioP2;P2;SDS_P1;SDS_P2;PMS_P1;PMS_P2;Temp;Humidity;BMP_temperature;BMP_pressure;BME280_temperature;BME280_humidity;BME280_pressure;Samples;Min_cycle;Max_cycle;Signal;HPM_P1;HPM_P2
2022/05/25 00:00:26;;;;;;;4.10;1.23;;;;;;;20.38;41.52;98372.25;5033184;28;20027;-48
2022/05/25 00:02:55;;;;;;;4.38;1.05;;;;;;;20.40;41.60;98376.22;5033151;28;20021;-47
2022/05/25 00:05:21;;;;;;;7.93;0.95;;;;;;;20.51;41.56;98371.66;5033051;28;20086;-48
2022/05/25 00:07:46;;;;;;;4.65;0.70;;;;;;;20.62;41.46;98370.56;5032919;28;20441;-47
2022/05/25 00:10:13;;;;;;;5.35;0.90;;;;;;;20.82;41.21;98364.34;5033003;28;20017;-47
2022/05/25 00:12:41;;;;;;;5.03;0.90;;;;;;;21.09;40.70;98363.94;5033147;28;20406;-47
2022/05/25 00:15:10;;;;;;;2.97;0.90;;;;;;;21.33;39.83;98372.03;5032833;28;20030;-47
2022/05/25 00:17:36;;;;;;;5.32;1.60;;;;;;;21.31;40.02;98384.06;5032359;28;20072;-47
2022/05/25 00:20:03;;;;;;;3.53;1.02;;;;;;;21.26;40.12;98389.44;5015014;28;20095;-48
2022/05/25 00:22:47;;;;;;;4.88;1.10;;;;;;;21.14;40.05;98384.44;5032809;28;20030;-47
2022/05/25 00:25:20;;;;;;;7.75;1.75;;;;;;;21.03;40.18;98388.25;5032718;28;20025;-46
2022/05/25 00:27:47;;;;;;;11.48;1.20;;;;;;;20.72;40.67;98396.41;5032767;28;20041;-46
2022/05/25 00:30:14;;;;;;;4.22;1.23;;;;;;;20.54;41.20;98379.94;5032589;28;20078;-47
2022/05/25 00:32:40;;;;;;;5.10;1.20;;;;;;;20.41;41.41;98391.16;5032552;28;20032;-47
2022/05/25 00:35:07;;;;;;;5.13;1.17;;;;;;;20.30;41.68;98389.59;5032523;28;20033;-46
2022/05/25 00:37:34;;;;;;;7.20;1.63;;;;;;;20.18;41.93;98391.75;5014708;28;20033;-47
2022/05/25 00:40:00;;;;;;;6.10;1.00;;;;;;;20.13;41.96;98396.03;5032391;28;20029;-47
2022/05/25 00:42:26;;;;;;;6.10;0.90;;;;;;;20.15;41.93;98390.44;5014629;28;20053;-47
2022/05/25 00:44:52;;;;;;;3.35;1.08;;;;;;;20.14;42.09;98386.16;5032372;28;20062;-47
2022/05/25 00:47:23;;;;;;;2.88;1.00;;;;;;;20.13;42.15;98396.03;5032314;28;20025;-47
2022/05/25 00:49:49;;;;;;;3.80;0.82;;;;;;;19.95;42.23;98400.03;5014524;28;20118;-47
2022/05/25 00:52:15;;;;;;;12.70;1.20;;;;;;;19.91;42.70;98393.66;5032238;28;20101;-47
2022/05/25 00:54:59;;;;;;;5.57;1.10;;;;;;;19.94;42.56;98387.00;5014421;28;20037;-48
2022/05/25 00:57:30;;;;;;;3.80;0.85;;;;;;;20.12;42.20;98397.09;5032100;28;20088;-47
2022/05/25 01:00:13;;;;;;;10.85;1.10;;;;;;;20.02;42.32;98391.81;5032202;28;20116;-47
2022/05/25 01:03:02;;;;;;;5.72;0.98;;;;;;;19.80;42.92;98399.25;5031751;28;20026;-47
2022/05/25 01:06:09;;;;;;;2.78;0.77;;;;;;;19.65;43.58;98405.38;5031637;28;20530;-48
2022/05/25 01:08:59;;;;;;;6.90;1.52;;;;;;;19.80;43.14;98412.56;4970981;28;20042;-47
2022/05/25 01:11:31;;;;;;;3.53;0.93;;;;;;;19.93;42.87;98417.38;4971085;28;20038;-47
2022/05/25 01:13:57;;;;;;;4.32;0.80;;;;;;;20.05;42.76;98420.56;4970782;28;20042;-46
2022/05/25 01:16:58;;;;;;;6.38;1.20;;;;;;;20.27;42.27;98414.91;4970908;28;20038;-48
2022/05/25 01:19:33;;;;;;;2.03;0.80;;;;;;;20.19;42.31;98420.00;4970587;28;20065;-47
2022/05/25 01:22:39;;;;;;;9.27;2.28;;;;;;;20.14;42.62;98421.63;4970946;28;20114;-47
2022/05/25 01:25:36;;;;;;;3.00;1.38;;;;;;;20.54;41.66;98424.44;4970886;28;20046;-47
2022/05/25 01:28:29;;;;;;;4.38;1.13;;;;;;;20.45;41.33;98423.41;4970740;28;20140;-47
2022/05/25 01:30:56;;;;;;;6.15;1.30;;;;;;;20.17;41.89;98428.25;4970601;28;20495;-47
2022/05/25 01:33:48;;;;;;;7.35;1.02;;;;;;;20.03;42.48;98429.88;4970774;28;20041;-47
2022/05/25 01:36:26;;;;;;;5.22;1.13;;;;;;;19.90;42.58;98429.38;4970746;28;20121;-48
2022/05/25 01:39:01;;;;;;;4.10;0.80;;;;;;;19.76;43.09;98428.31;4970752;28;20079;-48
2022/05/25 01:41:36;;;;;;;2.75;1.27;;;;;;;19.78;43.45;98444.00;4970749;28;20113;-47
2022/05/25 01:44:16;;;;;;;7.32;1.48;;;;;;;19.78;43.47;98436.00;4970758;28;20185;-47
2022/05/25 01:46:47;;;;;;;10.95;1.42;;;;;;;19.65;44.13;98454.09;5031636;28;20033;-47
2022/05/25 01:49:29;;;;;;;7.13;1.20;;;;;;;19.86;43.52;98443.47;5031662;28;20377;-48
2022/05/25 01:52:03;;;;;;;6.88;1.13;;;;;;;20.03;42.98;98451.19;5031531;28;20037;-46
2022/05/25 01:54:33;;;;;;;5.38;1.20;;;;;;;20.17;42.95;98459.44;5031592;28;20026;-47
2022/05/25 01:57:03;;;;;;;8.10;1.10;;;;;;;20.18;42.72;98453.03;5031398;28;20036;-47
2022/05/25 01:59:29;;;;;;;4.35;1.00;;;;;;;20.26;42.40;98449.81;5031581;28;20032;-47
2022/05/25 02:04:47;;;;;;;5.43;1.17;;;;;;;20.42;42.06;98448.72;5031745;28;20117;-47
2022/05/25 02:07:37;;;;;;;2.53;1.00;;;;;;;20.34;42.16;98450.09;5031278;28;20056;-47
2022/05/25 02:10:27;;;;;;;4.40;0.90;;;;;;;20.51;41.63;98455.09;5031242;28;20037;-47
2022/05/25 02:13:27;;;;;;;4.55;0.90;;;;;;;20.63;41.47;98462.03;5031792;28;20122;-47
2022/05/25 02:16:36;;;;;;;4.43;1.25;;;;;;;20.67;41.18;98463.88;5035057;28;20376;-47
2022/05/25 02:19:23;;;;;;;10.32;1.15;;;;;;;20.47;41.37;98454.06;4973765;28;20058;-47
2022/05/25 02:22:14;;;;;;;11.98;2.05;;;;;;;20.27;41.45;98449.56;4973936;28;20089;-46
2022/05/25 02:25:08;;;;;;;6.97;1.45;;;;;;;20.24;41.61;98451.97;4957712;28;20110;-47
2022/05/25 02:27:42;;;;;;;10.45;1.60;;;;;;;20.32;41.19;98465.56;4973681;28;20093;-47
2022/05/25 02:30:15;;;;;;;8.07;1.85;;;;;;;20.37;41.03;98464.75;4973869;28;20043;-47
2022/05/25 02:32:48;;;;;;;1.75;0.60;;;;;;;20.69;40.41;98474.28;4973856;28;20176;-47
2022/05/25 02:35:16;;;;;;;8.70;1.30;;;;;;;20.62;40.28;98481.78;4973788;28;20081;-48
2022/05/25 02:37:43;;;;;;;7.30;1.15;;;;;;;20.36;40.71;98479.13;4973636;28;20046;-47
2022/05/25 02:40:12;;;;;;;4.75;1.02;;;;;;;19.99;41.21;98468.78;4973688;28;20447;-48
2022/05/25 02:42:39;;;;;;;1.98;0.65;;;;;;;19.65;41.72;98475.38;4973607;28;20114;-47
2022/05/25 02:45:07;;;;;;;7.72;1.08;;;;;;;19.35;42.46;98484.13;4973542;28;20484;-47
2022/05/25 02:47:33;;;;;;;7.03;1.02;;;;;;;19.18;42.95;98487.00;4973565;28;20027;-48
2022/05/25 02:49:59;;;;;;;5.57;1.00;;;;;;;19.13;42.80;98477.13;5001566;28;20033;-47
2022/05/25 02:52:25;;;;;;;6.50;1.20;;;;;;;19.08;43.09;98484.31;5016676;28;20022;-48
2022/05/25 02:54:51;;;;;;;2.55;0.60;;;;;;;18.99;43.08;98483.19;5034433;28;20036;-48
2022/05/25 02:57:17;;;;;;;3.75;0.88;;;;;;;18.88;43.53;98501.78;5034304;28;20021;-47
2022/05/25 02:59:43;;;;;;;4.40;0.80;;;;;;;18.88;43.77;98499.13;5016514;28;20411;-47
2022/05/25 03:02:09;;;;;;;2.45;0.88;;;;;;;18.86;44.12;98495.91;5034254;28;20032;-47
2022/05/25 03:04:42;;;;;;;11.60;3.05;;;;;;;18.94;44.08;98503.41;5034226;28;20079;-47
2022/05/25 03:07:10;;;;;;;7.53;1.00;;;;;;;19.04;43.95;98512.50;5034241;28;20033;-48
2022/05/25 03:09:36;;;;;;;8.73;1.40;;;;;;;19.00;43.83;98514.88;5034113;28;20021;-47
2022/05/25 03:12:04;;;;;;;5.40;1.13;;;;;;;19.05;43.91;98508.75;5034092;28;20492;-47
2022/05/25 03:14:30;;;;;;;13.73;1.48;;;;;;;19.12;43.77;98514.66;5034047;28;20032;-47
2022/05/25 03:16:56;;;;;;;4.72;0.93;;;;;;;19.16;43.74;98515.72;4999873;28;20025;-48
2022/05/25 03:19:22;;;;;;;4.90;1.02;;;;;;;19.15;43.50;98516.78;5033817;28;20531;-48
2022/05/25 03:21:47;;;;;;;6.97;1.20;;;;;;;18.96;43.92;98522.56;5033799;28;20376;-47
2022/05/25 03:24:14;;;;;;;2.83;0.80;;;;;;;18.83;44.14;98517.69;5033669;28;20028;-47
2022/05/25 03:26:40;;;;;;;8.15;1.25;;;;;;;18.77;44.39;98526.66;5033742;28;20113;-47
2022/05/25 03:29:06;;;;;;;8.10;1.60;;;;;;;18.82;44.42;98526.75;5033781;28;20021;-47
2022/05/25 03:31:33;;;;;;;6.25;1.33;;;;;;;18.84;44.11;98529.16;5033671;28;20029;-47
2022/05/25 03:33:58;;;;;;;11.43;1.27;;;;;;;18.77;44.37;98532.00;5033685;28;20487;-47
2022/05/25 03:36:24;;;;;;;4.03;1.05;;;;;;;18.71;44.28;98527.69;5033827;28;20036;-47
2022/05/25 03:38:50;;;;;;;7.50;1.30;;;;;;;18.60;44.65;98526.84;5033613;28;20092;-48
2022/05/25 03:41:17;;;;;;;7.90;1.65;;;;;;;18.52;44.82;98530.78;5015768;28;20060;-47
2022/05/25 03:43:45;;;;;;;12.40;1.48;;;;;;;18.42;45.08;98528.06;5033431;28;20014;-48
2022/05/25 03:46:11;;;;;;;14.95;2.38;;;;;;;18.52;45.17;98530.00;5033434;28;20044;-48
2022/05/25 03:48:37;;;;;;;5.68;1.38;;;;;;;18.62;44.77;98526.59;5033481;28;20022;-47
2022/05/25 03:51:03;;;;;;;10.38;1.67;;;;;;;18.56;44.61;98531.88;5033399;28;20091;-47
2022/05/25 03:53:29;;;;;;;12.73;1.65;;;;;;;18.60;44.82;98544.66;5033365;28;20458;-47
2022/05/25 03:55:55;;;;;;;3.40;0.80;;;;;;;18.56;45.07;98547.03;5033216;28;20471;-47
2022/05/25 03:58:20;;;;;;;6.53;1.10;;;;;;;18.48;44.86;98558.94;5033296;28;20109;-48
2022/05/25 04:00:46;;;;;;;6.25;1.10;;;;;;;18.35;45.32;98559.34;5033152;28;20021;-47
2022/05/25 04:03:14;;;;;;;12.77;2.33;;;;;;;18.42;45.68;98559.94;5033217;28;20064;-47
2022/05/25 04:05:41;;;;;;;13.52;1.55;;;;;;;18.46;45.45;98561.03;5015277;28;20030;-47
2022/05/25 04:08:08;;;;;;;7.70;1.20;;;;;;;18.52;45.25;98560.00;5033043;28;20159;-47
2022/05/25 04:10:34;;;;;;;8.18;0.90;;;;;;;18.66;45.27;98571.00;5032947;28;20073;-47
2022/05/25 04:13:01;;;;;;;10.23;1.20;;;;;;;18.65;45.20;98573.91;5032945;28;20056;-47
2022/05/25 04:15:31;;;;;;;11.57;1.92;;;;;;;18.62;45.42;98575.25;5032777;28;20026;-46
2022/05/25 04:17:57;;;;;;;12.40;1.52;;;;;;;18.70;45.33;98582.72;5032510;28;20530;-47
2022/05/25 04:20:26;;;;;;;12.95;2.13;;;;;;;18.85;45.21;98586.56;5014993;28;20068;-47
2022/05/25 04:22:52;;;;;;;13.15;1.38;;;;;;;18.90;45.03;98589.28;5014957;28;20030;-47
2022/05/25 04:25:21;;;;;;;6.57;1.00;;;;;;;18.83;44.77;98589.47;5032594;28;20025;-47
2022/05/25 04:27:49;;;;;;;3.67;1.00;;;;;;;18.67;45.19;98587.75;5032658;28;20048;-47
2022/05/25 04:30:18;;;;;;;12.38;1.30;;;;;;;18.66;45.39;98586.97;5032618;28;20096;-48
2022/05/25 04:32:44;;;;;;;4.68;1.23;;;;;;;18.88;45.16;98584.22;5032584;28;20022;-49
2022/05/25 04:35:12;;;;;;;4.22;0.80;;;;;;;19.26;44.51;98592.94;5032574;28;20033;-49
2022/05/25 04:37:49;;;;;;;3.60;1.10;;;;;;;19.38;44.11;98595.38;5014307;28;20502;-47
2022/05/25 04:40:18;;;;;;;6.10;0.80;;;;;;;19.21;44.02;98597.41;5032522;28;20026;-47
2022/05/25 04:42:45;;;;;;;5.03;1.40;;;;;;;19.09;44.77;98602.94;5032405;28;20164;-50
2022/05/25 04:45:13;;;;;;;7.15;0.80;;;;;;;19.13;44.62;98604.03;5032369;28;20395;-47
2022/05/25 04:47:40;;;;;;;11.48;1.33;;;;;;;19.56;44.43;98604.75;5014535;28;20119;-48
2022/05/25 04:50:09;;;;;;;11.38;1.40;;;;;;;20.20;43.16;98606.25;5032206;28;20052;-46
2022/05/25 04:52:35;;;;;;;8.98;1.63;;;;;;;20.82;42.25;98609.72;5032307;28;20431;-47
2022/05/25 04:55:01;;;;;;;13.85;1.67;;;;;;;21.68;40.51;98607.88;5032089;28;20367;-48
2022/05/25 04:57:27;;;;;;;7.82;1.23;;;;;;;22.44;39.03;98608.50;5014366;28;20403;-47
2022/05/25 05:00:04;;;;;;;18.17;1.75;;;;;;;23.22;37.75;98609.38;5032060;28;20029;-48
2022/05/25 05:02:30;;;;;;;9.25;1.92;;;;;;;23.94;36.13;98605.81;5032368;28;20022;-49
2022/05/25 05:04:57;;;;;;;9.02;1.20;;;;;;;24.61;34.71;98610.97;5032023;28;20025;-49
2022/05/25 05:07:34;;;;;;;8.48;1.55;;;;;;;25.14;33.30;98608.94;5031987;28;20044;-49
2022/05/25 05:10:01;;;;;;;12.40;2.38;;;;;;;25.29;32.99;98604.09;5014283;28;20112;-50
2022/05/25 05:12:28;;;;;;;12.10;1.52;;;;;;;25.69;32.50;98603.53;5032522;28;20080;-49
2022/05/25 05:14:54;;;;;;;8.77;1.23;;;;;;;26.24;31.84;98611.47;5031945;28;20392;-50
2022/05/25 05:17:20;;;;;;;8.00;1.35;;;;;;;26.80;30.79;98601.25;5031414;28;20049;-50
2022/05/25 05:19:46;;;;;;;43.92;3.33;;;;;;;27.17;30.34;98601.88;5031855;28;20077;-49
2022/05/25 05:22:11;;;;;;;17.27;1.75;;;;;;;27.54;29.22;98598.97;5031888;28;20158;-49
2022/05/25 05:24:37;;;;;;;18.85;2.83;;;;;;;28.06;28.75;98604.44;5031846;28;20029;-49
2022/05/25 05:27:06;;;;;;;27.58;3.20;;;;;;;28.26;28.80;98597.59;5031874;28;20035;-48
2022/05/25 05:29:32;;;;;;;10.68;2.03;;;;;;;28.76;27.56;98599.75;5031827;28;20105;-48
2022/05/25 05:31:59;;;;;;;18.98;2.40;;;;;;;29.16;27.54;98599.44;5031717;28;20061;-48
2022/05/25 05:34:28;;;;;;;14.73;2.25;;;;;;;29.55;27.00;98599.38;5031726;28;20029;-48
2022/05/25 05:37:12;;;;;;;10.27;1.73;;;;;;;29.97;26.16;98602.13;5031530;28;20107;-48
2022/05/25 05:39:43;;;;;;;5.68;1.70;;;;;;;30.09;26.01;98607.59;5031725;28;20055;-48
2022/05/25 05:42:14;;;;;;;12.75;1.70;;;;;;;30.17;25.89;98605.94;5013927;28;20556;-47
2022/05/25 05:45:05;;;;;;;9.98;1.98;;;;;;;29.82;26.06;98615.13;5031702;28;20053;-47
2022/05/25 05:47:41;;;;;;;11.40;1.45;;;;;;;29.98;25.48;98614.53;5026094;28;20530;-48
2022/05/25 05:50:07;;;;;;;5.35;1.10;;;;;;;30.05;25.45;98614.78;5035722;28;20106;-48
2022/05/25 05:52:35;;;;;;;8.35;1.60;;;;;;;30.51;25.35;98621.09;5035640;28;20025;-48
2022/05/25 05:55:02;;;;;;;10.93;1.30;;;;;;;30.91;24.49;98617.81;5035483;28;20029;-48
2022/05/25 05:57:33;;;;;;;9.50;1.20;;;;;;;31.19;23.63;98630.69;5035439;28;20030;-47
2022/05/25 05:59:59;;;;;;;7.20;1.60;;;;;;;31.43;23.84;98628.00;5035395;28;20029;-47
2022/05/25 06:02:25;;;;;;;5.35;1.40;;;;;;;31.73;23.24;98629.66;5035473;28;20142;-48
2022/05/25 06:04:51;;;;;;;7.00;1.33;;;;;;;32.13;23.15;98639.75;5017564;28;20525;-48
2022/05/25 06:07:16;;;;;;;13.68;1.83;;;;;;;32.49;22.72;98651.59;5035323;28;20029;-48
2022/05/25 06:09:42;;;;;;;11.85;1.60;;;;;;;32.73;22.41;98651.50;5035279;28;20013;-48
2022/05/25 06:12:08;;;;;;;9.02;1.17;;;;;;;32.73;21.87;98648.78;5035526;28;20030;-47
2022/05/25 06:14:34;;;;;;;10.88;1.63;;;;;;;32.39;21.81;98647.47;5035214;28;20056;-47
2022/05/25 06:19:44;;;;;;;6.88;1.33;;;;;;;32.49;21.88;98646.19;5034984;28;20060;-47
2022/05/25 06:22:15;;;;;;;8.20;1.80;;;;;;;32.56;22.22;98657.25;5034934;28;20075;-47
2022/05/25 06:24:50;;;;;;;12.27;2.78;;;;;;;32.70;21.82;98644.06;5034895;28;20021;-48
2022/05/25 06:27:17;;;;;;;7.95;1.52;;;;;;;32.59;22.00;98657.34;5017197;28;20032;-47
2022/05/25 06:29:47;;;;;;;5.93;1.50;;;;;;;32.53;21.69;98658.72;5017129;28;20117;-47
2022/05/25 06:32:14;;;;;;;10.25;2.20;;;;;;;32.81;21.52;98660.63;5035080;28;20422;-48
2022/05/25 06:34:41;;;;;;;5.95;1.30;;;;;;;33.30;21.42;98652.16;5017031;28;20029;-48
2022/05/25 06:37:14;;;;;;;4.28;1.10;;;;;;;33.59;21.09;98663.72;5034597;28;20033;-48
2022/05/25 06:39:42;;;;;;;5.03;1.30;;;;;;;33.45;21.14;98664.16;5034770;28;20499;-47
2022/05/25 06:42:08;;;;;;;7.55;1.02;;;;;;;33.55;20.75;98666.34;5034650;28;20049;-47
2022/05/25 06:44:35;;;;;;;16.00;2.13;;;;;;;33.83;20.85;98668.16;5034625;28;20029;-48
2022/05/25 06:47:01;;;;;;;10.60;1.95;;;;;;;33.80;20.39;98664.19;5034631;28;20026;-47
2022/05/25 06:49:27;;;;;;;6.75;1.33;;;;;;;33.75;20.49;98661.75;5016756;28;20037;-48
2022/05/25 06:51:53;;;;;;;9.55;1.35;;;;;;;34.45;20.33;98659.28;5034364;28;20021;-48
2022/05/25 06:54:20;;;;;;;6.65;1.30;;;;;;;34.75;19.91;98657.56;5034431;28;20040;-47
2022/05/25 06:56:46;;;;;;;10.65;1.42;;;;;;;34.92;19.42;98664.47;5034308;28;20255;-48
2022/05/25 06:59:11;;;;;;;4.68;1.10;;;;;;;35.51;18.92;98659.56;5033714;28;20100;-47
2022/05/25 07:01:39;;;;;;;7.68;1.70;;;;;;;35.75;18.72;98663.03;5034201;28;20021;-47
2022/05/25 07:04:07;;;;;;;6.50;2.10;;;;;;;35.93;18.41;98664.06;5034320;28;20029;-47
2022/05/25 07:06:36;;;;;;;9.77;1.25;;;;;;;35.89;18.43;98660.50;5034222;28;20048;-48
2022/05/25 07:09:04;;;;;;;7.43;1.15;;;;;;;35.41;18.87;98655.50;5034216;28;20025;-48
2022/05/25 07:11:30;;;;;;;4.35;0.90;;;;;;;35.36;18.54;98672.22;5034316;28;20096;-49
2022/05/25 07:13:55;;;;;;;6.03;0.88;;;;;;;34.93;19.20;98676.97;5034046;28;20029;-49
2022/05/25 07:16:22;;;;;;;4.20;0.93;;;;;;;34.30;19.47;98678.09;5034015;28;20017;-48
2022/05/25 07:18:49;;;;;;;9.50;2.25;;;;;;;33.97;19.56;98678.56;5033784;28;20411;-49
2022/05/25 07:21:27;;;;;;;7.03;1.23;;;;;;;33.56;20.37;98686.94;5033964;28;20029;-49
2022/05/25 07:23:57;;;;;;;5.47;1.10;;;;;;;33.02;20.66;98691.09;5016721;28;20589;-48
2022/05/25 07:26:25;;;;;;;3.75;0.93;;;;;;;32.79;21.39;98681.94;5033882;28;20446;-47
2022/05/25 07:28:51;;;;;;;8.48;1.10;;;;;;;32.77;21.81;98678.78;5016012;28;20068;-48
2022/05/25 07:31:25;;;;;;;8.23;2.17;;;;;;;32.74;21.68;98691.16;5033813;28;20037;-49
2022/05/25 07:34:05;;;;;;;18.20;2.97;;;;;;;32.29;21.93;98686.78;5033696;28;20029;-48
2022/05/25 07:36:33;;;;;;;21.98;4.05;;;;;;;31.89;22.21;98679.38;5033571;28;20454;-48
2022/05/25 07:39:04;;;;;;;18.95;5.65;;;;;;;31.98;22.59;98696.34;5033699;28;20107;-50
2022/05/25 07:41:33;;;;;;;19.90;5.85;;;;;;;32.20;21.76;98689.63;5033657;28;20064;-50
2022/05/25 07:43:59;;;;;;;26.42;5.43;;;;;;;32.37;21.56;98693.97;5033577;28;20564;-50
2022/05/25 07:46:29;;;;;;;10.35;4.13;;;;;;;32.51;21.47;98706.38;5015621;28;20042;-50
2022/05/25 07:48:55;;;;;;;18.58;5.85;;;;;;;32.73;21.12;98707.78;5015659;28;20030;-48
2022/05/25 07:51:22;;;;;;;18.70;4.97;;;;;;;33.25;21.12;98717.72;5015584;28;20029;-49
2022/05/25 07:53:57;;;;;;;13.57;3.45;;;;;;;33.75;20.77;98712.69;5033340;28;20034;-49
2022/05/25 07:56:35;;;;;;;17.65;5.53;;;;;;;34.30;20.20;98704.56;5033183;28;20106;-48
2022/05/25 07:59:03;;;;;;;12.85;3.33;;;;;;;34.67;19.31;98707.66;5033318;28;20402;-48
2022/05/25 08:07:08;;;;;;;10.00;2.92;;;;;;;35.96;18.23;98687.91;5033058;28;20054;-49
2022/05/25 08:09:34;;;;;;;7.10;1.83;;;;;;;36.59;17.39;98700.00;5033049;28;20079;-49
2022/05/25 08:12:01;;;;;;;9.18;3.20;;;;;;;36.55;17.25;98703.88;5032017;28;20033;-49
2022/05/25 08:14:29;;;;;;;6.22;2.58;;;;;;;36.72;16.85;98700.53;5032872;28;20053;-49
2022/05/25 08:16:54;;;;;;;6.47;1.92;;;;;;;36.94;16.89;98704.28;5032860;28;20022;-49
2022/05/25 08:19:21;;;;;;;7.95;1.90;;;;;;;36.95;16.73;98708.59;5011633;28;20400;-49
2022/05/25 08:21:48;;;;;;;8.93;1.88;;;;;;;36.82;16.72;98701.81;5013324;28;20463;-49
2022/05/25 08:24:15;;;;;;;9.65;1.88;;;;;;;36.29;17.05;98708.25;5013046;28;20038;-49
2022/05/25 08:26:41;;;;;;;7.13;1.83;;;;;;;36.29;17.30;98712.94;5012956;28;20377;-49
2022/05/25 08:29:07;;;;;;;4.50;1.10;;;;;;;36.21;17.38;98720.25;5013004;28;20026;-49
2022/05/25 08:31:42;;;;;;;8.82;2.00;;;;;;;36.49;17.42;98708.09;5109679;27;20390;-48
2022/05/25 08:34:09;;;;;;;5.95;1.98;;;;;;;37.03;16.99;98712.19;5109687;28;20055;-49
2022/05/25 08:36:34;;;;;;;10.93;2.47;;;;;;;37.74;16.76;98708.47;5109623;28;20034;-49
2022/05/25 08:39:00;;;;;;;9.40;1.58;;;;;;;38.14;16.40;98709.47;5109560;28;20098;-47
2022/05/25 08:41:53;;;;;;;8.88;1.33;;;;;;;38.19;15.79;98703.63;5109544;28;20028;-47
2022/05/25 08:44:23;;;;;;;13.27;2.00;;;;;;;37.27;16.04;98715.53;5109494;28;20424;-48
2022/05/25 08:46:55;;;;;;;13.73;1.90;;;;;;;36.57;16.73;98712.47;5109431;28;20024;-47
2022/05/25 08:49:23;;;;;;;6.07;1.00;;;;;;;36.36;16.99;98715.75;5109363;28;20016;-46
2022/05/25 08:51:55;;;;;;;3.42;1.02;;;;;;;36.87;16.68;98717.13;5109376;28;20031;-49
2022/05/25 08:54:24;;;;;;;10.07;1.33;;;;;;;37.35;16.28;98708.97;5109667;28;20524;-49
2022/05/25 08:56:59;;;;;;;10.57;1.50;;;;;;;37.61;16.09;98701.72;5107898;28;20035;-47
2022/05/25 08:59:45;;;;;;;7.88;1.42;;;;;;;37.44;15.85;98703.16;5109250;28;20027;-47
2022/05/25 09:02:22;;;;;;;8.50;1.20;;;;;;;36.50;16.41;98712.38;5107888;28;20039;-49
2022/05/25 09:04:58;;;;;;;9.75;1.88;;;;;;;35.71;16.82;98727.75;5109194;28;20144;-47
2022/05/25 09:07:49;;;;;;;11.85;1.45;;;;;;;36.08;17.15;98702.47;5109055;28;20036;-46
2022/05/25 09:10:15;;;;;;;13.50;1.90;;;;;;;35.72;16.98;98721.13;5108928;28;20431;-46
2022/05/25 09:12:52;;;;;;;9.02;1.05;;;;;;;35.46;17.22;98719.16;5107610;28;20589;-46
2022/05/25 09:15:34;;;;;;;8.38;1.20;;;;;;;35.11;17.15;98723.59;5108855;28;20032;-46
2022/05/25 09:18:15;;;;;;;8.80;1.40;;;;;;;35.08;17.47;98724.34;5108848;28;20059;-48
2022/05/25 09:20:49;;;;;;;22.60;1.95;;;;;;;35.01;17.38;98724.22;5108822;28;20024;-47
2022/05/25 09:23:14;;;;;;;;;;;;;;;35.16;17.33;98720.63;5109268;28;20081;-46
2022/05/25 09:25:43;;;;;;;13.10;2.20;;;;;;;35.00;17.89;98717.19;5108730;28;19907;-47
2022/05/25 09:28:20;;;;;;;5.55;1.15;;;;;;;35.14;17.64;98713.94;5108663;28;20178;-47
2022/05/25 09:30:52;;;;;;;8.02;1.10;;;;;;;34.90;17.59;98709.63;5108358;28;20092;-46
2022/05/25 09:33:38;;;;;;;4.55;1.08;;;;;;;35.02;17.49;98717.63;5107358;28;20404;-46
2022/05/25 09:36:25;;;;;;;6.30;1.20;;;;;;;35.01;17.31;98711.38;5108569;28;20145;-46
2022/05/25 09:39:12;;;;;;;15.35;2.63;;;;;;;34.61;16.83;98711.75;5107152;28;20031;-46
2022/05/25 09:41:42;;;;;;;12.48;1.30;;;;;;;34.13;17.88;98719.34;5101482;28;20141;-48
2022/05/25 09:44:12;;;;;;;7.65;1.00;;;;;;;33.92;17.36;98723.19;5094758;28;20020;-48
2022/05/25 09:46:43;;;;;;;10.45;0.95;;;;;;;34.01;17.74;98717.56;5094703;28;20028;-46
2022/05/25 09:49:25;;;;;;;5.13;0.88;;;;;;;34.27;17.98;98714.25;5094721;28;20027;-48
2022/05/25 09:51:58;;;;;;;4.70;0.60;;;;;;;34.38;17.88;98728.06;5093881;28;20531;-47
2022/05/25 09:54:30;;;;;;;12.93;1.23;;;;;;;34.54;18.01;98725.28;5094693;28;20077;-47
2022/05/25 09:57:26;;;;;;;6.45;1.25;;;;;;;34.87;17.72;98718.50;5094615;28;20115;-45
2022/05/25 10:00:00;;;;;;;4.75;0.73;;;;;;;34.59;18.03;98722.25;5071872;28;20035;-47
2022/05/25 10:02:43;;;;;;;2.42;0.85;;;;;;;34.71;17.70;98722.13;5094503;28;20031;-48
2022/05/25 10:05:23;;;;;;;14.63;1.70;;;;;;;34.55;17.66;98727.66;5094490;28;20107;-48
2022/05/25 10:07:55;;;;;;;5.68;1.10;;;;;;;34.25;18.02;98719.25;5094268;28;20032;-48
2022/05/25 10:10:33;;;;;;;3.95;1.00;;;;;;;34.47;18.58;98730.56;5092903;28;20024;-48
2022/05/25 10:13:14;;;;;;;11.00;0.95;;;;;;;34.74;17.95;98732.31;5094286;28;20513;-48
2022/05/25 10:15:40;;;;;;;4.13;0.95;;;;;;;34.59;17.04;98730.41;5094290;28;20035;-46
2022/05/25 10:18:06;;;;;;;7.97;1.27;;;;;;;34.20;16.81;98728.47;5094122;28;20103;-46
2022/05/25 10:20:42;;;;;;;5.93;0.82;;;;;;;34.04;17.37;98733.16;5094165;28;20123;-46
2022/05/25 10:23:19;;;;;;;2.83;0.90;;;;;;;34.01;17.00;98734.69;5094141;28;20103;-45
2022/05/25 10:25:47;;;;;;;5.75;1.05;;;;;;;34.41;17.26;98727.38;5094085;28;20031;-46
2022/05/25 10:28:54;;;;;;;2.72;0.80;;;;;;;34.87;17.39;98723.97;5092612;28;20039;-48
2022/05/25 10:37:29;;;;;;;6.93;1.05;;;;;;;34.26;17.90;98745.34;5094050;28;20031;-48
2022/05/25 10:39:54;;;;;;;9.60;1.20;;;;;;;34.34;17.70;98725.25;5094030;28;20032;-48
2022/05/25 10:42:44;;;;;;;10.68;0.90;;;;;;;34.07;17.50;98742.56;5093669;28;20031;-46
2022/05/25 10:45:32;;;;;;;5.68;0.90;;;;;;;34.08;16.79;98747.66;5093645;28;20135;-45
2022/05/25 10:48:13;;;;;;;4.32;0.75;;;;;;;34.18;16.94;98749.06;5093592;28;20058;-47
2022/05/25 10:50:52;;;;;;;2.55;0.60;;;;;;;33.82;17.56;98757.19;5093478;28;20490;-46
2022/05/25 10:54:44;;;;;;;2.40;0.70;;;;;;;33.74;18.19;98746.50;5074390;28;20032;-48
2022/05/25 10:56:40;;;;;;;10.43;1.30;;;;;;;33.81;18.38;98736.56;5093231;28;20088;-47
2022/05/25 10:59:22;;;;;;;12.95;1.38;;;;;;;33.72;18.44;98744.13;5093406;28;20028;-48
2022/05/25 11:01:57;;;;;;;8.60;1.25;;;;;;;33.68;18.13;98726.91;5092047;28;20032;-47
2022/05/25 11:04:22;;;;;;;8.57;1.13;;;;;;;33.73;18.26;98739.50;5093279;28;20036;-48
2022/05/25 11:07:00;;;;;;;8.98;1.20;;;;;;;33.47;18.13;98740.00;5093225;28;20024;-46
2022/05/25 11:09:36;;;;;;;5.00;0.80;;;;;;;33.25;17.68;98730.53;5093116;28;20096;-46
2022/05/25 11:12:43;;;;;;;7.00;0.93;;;;;;;33.10;18.98;98719.28;5093045;28;20046;-46
2022/05/25 11:15:30;;;;;;;2.92;0.65;;;;;;;33.28;18.63;98729.81;5093110;28;20035;-47
2022/05/25 11:18:25;;;;;;;6.10;1.10;;;;;;;33.15;18.17;98738.06;5091678;28;20028;-47
2022/05/25 11:21:27;;;;;;;7.22;1.67;;;;;;;33.18;18.79;98725.69;5091609;28;20052;-46
2022/05/25 11:24:07;;;;;;;5.22;1.15;;;;;;;33.37;17.82;98733.16;5092965;28;20031;-46
2022/05/25 11:26:54;;;;;;;6.00;0.82;;;;;;;33.36;17.96;98739.72;5092871;28;20099;-46
2022/05/25 11:29:56;;;;;;;7.00;1.25;;;;;;;32.98;18.74;98736.44;5091154;28;20039;-47
2022/05/25 11:32:45;;;;;;;10.00;1.10;;;;;;;32.95;18.70;98741.78;5092804;28;20028;-46
2022/05/25 11:35:26;;;;;;;12.77;1.60;;;;;;;33.08;18.67;98739.75;5092518;28;20047;-46
2022/05/25 11:38:28;;;;;;;6.70;1.20;;;;;;;33.01;19.23;98743.09;5092547;28;20034;-48
2022/05/25 11:41:19;;;;;;;5.75;0.82;;;;;;;33.18;19.04;98731.94;5092562;28;20447;-49
2022/05/25 11:44:06;;;;;;;8.00;1.25;;;;;;;32.87;18.51;98737.28;5092583;28;20051;-48
2022/05/25 11:46:43;;;;;;;6.65;1.65;;;;;;;32.75;18.84;98747.06;5091180;28;20166;-48
2022/05/25 11:49:39;;;;;;;12.57;1.27;;;;;;;32.65;19.10;98742.13;5092485;28;20027;-48
2022/05/25 11:52:24;;;;;;;4.10;0.93;;;;;;;33.26;18.69;98749.19;5091115;28;20409;-48
2022/05/25 11:55:11;;;;;;;5.72;1.10;;;;;;;33.65;18.57;98749.41;5092343;28;20020;-48
2022/05/25 11:57:57;;;;;;;5.57;0.90;;;;;;;33.48;18.58;98749.72;5092408;28;20028;-47
2022/05/25 12:00:36;;;;;;;12.43;2.50;;;;;;;33.71;18.72;98744.50;5092314;28;20106;-48
2022/05/25 12:03:27;;;;;;;15.93;1.50;;;;;;;34.16;18.34;98748.63;5090947;28;20032;-49
2022/05/25 12:06:14;;;;;;;3.90;0.80;;;;;;;33.79;18.73;98744.28;5091947;28;20024;-48
2022/05/25 12:09:01;;;;;;;22.10;1.85;;;;;;;32.99;19.40;98751.59;5092123;28;20024;-48
2022/05/25 12:11:41;;;;;;;3.58;0.80;;;;;;;32.90;19.49;98739.28;5092093;28;20052;-48
2022/05/25 12:14:34;;;;;;;3.30;0.68;;;;;;;32.80;19.40;98735.16;5092137;28;20432;-49
2022/05/25 12:17:14;;;;;;;10.00;0.93;;;;;;;32.67;19.67;98734.44;5091999;28;20518;-48